D/T METAR WX W/DIR W/SPE G/SPE TEMP DEWP
16/01/19 02:50 EGXZ 160250Z AUTO 24015KT 9999 BKN039/// SCT200/// 09/06 Q1002 WSW (240°) 17.3mph 9°C 6°C
16/01/19 01:50 EGXZ 160150Z AUTO 23017KT 9999 FEW023/// 09/06 Q1003 SW (230°) 19.6mph 9°C 6°C
16/01/19 00:50 EGXZ 160050Z AUTO 20008KT 9999 BKN018/// BKN024/// 09/06 Q1004 SSW (200°) 9.2mph 9°C 6°C
15/01/19 23:50 EGXZ 152350Z AUTO 21010KT 9999 BKN019/// 09/06 Q1006 SSW (210°) 11.5mph 9°C 6°C
15/01/19 22:50 EGXZ 152250Z AUTO 22014KT 9999 BKN020/// BKN031/// 10/06 Q1006 SW (220°) 16.1mph 10°C 6°C
15/01/19 21:50 EGXZ 152150Z AUTO 24016KT 9999 FEW023/// BKN029/// 09/06 Q1007 WSW (240°) 18.4mph 9°C 6°C
15/01/19 20:50 EGXZ 152050Z AUTO 24012KT 9999 BKN022/// BKN170/// 09/06 Q1008 WSW (240°) 13.8mph 9°C 6°C
15/01/19 19:50 EGXZ 151950Z AUTO 26011KT 9999 SCT019/// BKN180/// 09/06 Q1009 W (260°) 12.7mph 9°C 6°C
15/01/19 18:50 EGXZ 151850Z AUTO 25011KT 9999 SCT023/// BKN190/// 09/05 Q1009 WSW (250°) 12.7mph 9°C 5°C
15/01/19 17:50 EGXZ 151750Z AUTO 24012KT 9999 OVC200/// 09/05 Q1010 WSW (240°) 13.8mph 9°C 5°C
15/01/19 16:50 EGXZ 151650Z AUTO 25008KT 9999 OVC180/// 09/04 Q1010 WSW (250°) 9.2mph 9°C 4°C
15/01/19 15:50 EGXZ 151550Z AUTO 26014KT 9999 BKN190/// 09/04 Q1010 W (260°) 16.1mph 9°C 4°C
15/01/19 14:50 EGXZ 151450Z AUTO 27010G20KT 9999 BKN035/// 10/03 Q1011 W (270°) 11.5mph 23.0mph 10°C 3°C
15/01/19 13:50 EGXZ 151350Z AUTO 27010KT 9999 BKN032/// 10/05 Q1012 W (270°) 11.5mph 10°C 5°C
15/01/19 12:50 EGXZ 151250Z AUTO 27012KT 9999 SCT047/// 10/05 Q1012 W (270°) 13.8mph 10°C 5°C
15/01/19 11:50 EGXZ 151150Z AUTO 26010KT 9999 BKN026/// SCT050/// 10/06 Q1013 W (260°) 11.5mph 10°C 6°C
15/01/19 10:50 EGXZ 151050Z AUTO 27013KT 9999 NCD 10/06 Q1014 W (270°) 15.0mph 10°C 6°C
15/01/19 09:50 EGXZ 150950Z AUTO 26013KT 9999 FEW021/// 10/06 Q1014 W (260°) 15.0mph 10°C 6°C
15/01/19 08:50 EGXZ 150850Z AUTO 26012KT 9999 BKN090/// BKN140/// 10/06 Q1014 W (260°) 13.8mph 10°C 6°C
15/01/19 07:50 EGXZ 150750Z AUTO 28011KT 9999 OVC110/// 09/06 Q1014 W (280°) 12.7mph 9°C 6°C
15/01/19 06:50 EGXZ 150650Z AUTO 26009KT 9999 FEW021/// BKN120/// 09/05 Q1014 W (260°) 10.4mph 9°C 5°C
15/01/19 05:50 EGXZ 150550Z AUTO 26010KT 9999 BKN021/// SCT029/// 09/05 Q1014 W (260°) 11.5mph 9°C 5°C
15/01/19 04:50 EGXZ 150450Z AUTO 25008KT 9999 FEW041/// 09/05 Q1014 WSW (250°) 9.2mph 9°C 5°C
15/01/19 03:50 EGXZ 150350Z AUTO 28004KT 9999 SCT021/// BKN038/// 09/06 Q1015 W (280°) 4.6mph 9°C 6°C
15/01/19 02:50 EGXZ 150250Z AUTO 23004KT 9999 SCT022/// SCT026/// BKN037/// 09/06 Q1016 SW (230°) 4.6mph 9°C 6°C
15/01/19 01:50 EGXZ 150150Z AUTO 24008KT 9999 SCT019/// BKN029/// BKN036/// 08/06 Q1016 WSW (240°) 9.2mph 8°C 6°C
15/01/19 00:50 EGXZ 150050Z AUTO 20008KT 9999 BKN013/// BKN027/// 07/06 Q1017 SSW (200°) 9.2mph 7°C 6°C
14/01/19 23:50 EGXZ 142350Z AUTO 23010KT 9999 FEW023/// SCT033/// 07/05 Q1018 SW (230°) 11.5mph 7°C 5°C
14/01/19 22:50 EGXZ 142250Z AUTO 21008KT 9999 FEW023/// SCT050/// 06/04 Q1018 SSW (210°) 9.2mph 6°C 4°C
14/01/19 21:50 EGXZ 142150Z AUTO 23007KT 9999 BKN050/// 07/04 Q1018 SW (230°) 8.1mph 7°C 4°C
14/01/19 20:50 EGXZ 142050Z AUTO 25008KT 9999 FEW029/// BKN034/// 07/04 Q1019 WSW (250°) 9.2mph 7°C 4°C
14/01/19 19:50 EGXZ 141950Z AUTO 23007KT 9999 BKN034/// 06/04 Q1019 SW (230°) 8.1mph 6°C 4°C
14/01/19 18:50 EGXZ 141850Z AUTO 23006KT 9999 BKN042/// 04/02 Q1019 SW (230°) 6.9mph 4°C 2°C
14/01/19 17:50 EGXZ 141750Z AUTO 23006KT 9999 FEW048/// 04/02 Q1019 SW (230°) 6.9mph 4°C 2°C
14/01/19 16:50 EGXZ 141650Z AUTO 26005KT 9999 SCT050/// BKN080/// 06/03 Q1019 W (260°) 5.8mph 6°C 3°C
14/01/19 15:50 EGXZ 141550Z AUTO 22004KT 9999 BKN044/// 07/04 Q1019 SW (220°) 4.6mph 7°C 4°C
14/01/19 14:50 EGXZ 141450Z AUTO 22003KT 9999 BKN039/// 07/04 Q1019 RERA SW (220°) 3.5mph 7°C 4°C
14/01/19 13:50 EGXZ 141350Z AUTO 18003KT 9999 FEW028/// SCT036/// BKN046/// 07/04 Q1019 S (180°) 3.5mph 7°C 4°C
14/01/19 12:50 EGXZ 141250Z AUTO 36002KT 9999 FEW050/// 07/04 Q1020 N (360°) 2.3mph 7°C 4°C
14/01/19 11:50 EGXZ 141150Z AUTO 35004KT 9999 FEW027/// BKN039/// 06/04 Q1020 N (350°) 4.6mph 6°C 4°C
14/01/19 10:50 EGXZ 141050Z AUTO 33003KT 9999 BKN023/// BKN044/// 06/03 Q1020 NNW (330°) 3.5mph 6°C 3°C
14/01/19 09:50 EGXZ 140950Z AUTO 31004KT 9999 BKN026/// 06/03 Q1019 NW (310°) 4.6mph 6°C 3°C
14/01/19 08:50 EGXZ 140850Z AUTO 31003KT 9999 FEW025/// BKN031/// 05/03 Q1019 NW (310°) 3.5mph 5°C 3°C
14/01/19 07:50 EGXZ 140750Z AUTO 32004KT 9999 FEW026/// OVC035/// 05/03 Q1017 NW (320°) 4.6mph 5°C 3°C
14/01/19 06:50 EGXZ 140650Z AUTO 30003KT 9999 BKN036/// 05/02 Q1017 WNW (300°) 3.5mph 5°C 2°C
14/01/19 05:50 EGXZ 140550Z AUTO 28003KT 9999 FEW038/// BKN180/// 06/02 Q1016 W (280°) 3.5mph 6°C 2°C
14/01/19 04:50 EGXZ 140450Z AUTO 30015KT 9999 NCD 06/02 Q1015 WNW (300°) 17.3mph 6°C 2°C
14/01/19 03:50 EGXZ 140350Z AUTO 30013KT 9999 NCD 06/02 Q1014 WNW (300°) 15.0mph 6°C 2°C
14/01/19 02:50 EGXZ 140250Z AUTO 31015KT 9999 NCD 07/02 Q1014 NW (310°) 17.3mph 7°C 2°C
14/01/19 01:50 EGXZ 140150Z AUTO 31013KT 9999 NCD 07/02 Q1013 NW (310°) 15.0mph 7°C 2°C
14/01/19 00:50 EGXZ 140050Z AUTO 30014KT 9999 NCD 07/03 Q1012 WNW (300°) 16.1mph 7°C 3°C
13/01/19 23:50 EGXZ 132350Z AUTO 30017KT 9999 NCD 07/03 Q1011 WNW (300°) 19.6mph 7°C 3°C
13/01/19 22:50 EGXZ 132250Z AUTO 30013KT 9999 NCD 07/03 Q1011 WNW (300°) 15.0mph 7°C 3°C
13/01/19 21:50 EGXZ 132150Z AUTO 31012KT 9999 BKN029/// 07/03 Q1010 NW (310°) 13.8mph 7°C 3°C
13/01/19 20:50 EGXZ 132050Z AUTO 30012KT 9999 FEW044/// 08/03 Q1009 WNW (300°) 13.8mph 8°C 3°C
13/01/19 19:50 EGXZ 131950Z AUTO 30015KT 9999 FEW033/// 08/03 Q1009 WNW (300°) 17.3mph 8°C 3°C
13/01/19 18:50 EGXZ 131850Z AUTO 30018KT 9999 BKN033/// BKN044/// 09/03 Q1008 WNW (300°) 20.7mph 9°C 3°C
13/01/19 17:50 EGXZ 131750Z AUTO 31018KT 9999 BKN034/// SCT043/// 09/03 Q1008 NW (310°) 20.7mph 9°C 3°C
13/01/19 16:50 EGXZ 131650Z AUTO 32025KT 9999 BKN038/// 09/03 Q1007 NW (320°) 28.8mph 9°C 3°C
13/01/19 15:50 EGXZ 131550Z AUTO 31019KT 9999 SCT041/// 10/03 Q1007 NW (310°) 21.9mph 10°C 3°C
13/01/19 14:50 EGXZ 131450Z AUTO 30017KT 9999 SCT050/// 10/04 Q1006 WNW (300°) 19.6mph 10°C 4°C
13/01/19 13:50 EGXZ 131350Z AUTO 30026G39KT 9999 FEW032/// 11/05 Q1006 WNW (300°) 29.9mph 44.9mph 11°C 5°C
13/01/19 12:50 EGXZ 131250Z AUTO 31017KT 9999 BKN031/// SCT047/// 12/06 Q1006 NW (310°) 19.6mph 12°C 6°C
13/01/19 11:50 EGXZ 131150Z AUTO 30019G30KT 9999 BKN025/// SCT036/// 12/07 Q1007 WNW (300°) 21.9mph 34.5mph 12°C 7°C
13/01/19 10:50 EGXZ 131050Z AUTO 27011KT 9999 BKN025/// 12/07 Q1006 W (270°) 12.7mph 12°C 7°C
13/01/19 09:50 EGXZ 130950Z AUTO 27015KT 9999 BKN024/// BKN033/// 11/07 Q1007 W (270°) 17.3mph 11°C 7°C
13/01/19 08:50 EGXZ 130850Z AUTO 26011KT 9999 BKN022/// BKN035/// 11/07 Q1008 W (260°) 12.7mph 11°C 7°C
13/01/19 07:50 EGXZ 130750Z AUTO 27015KT 9999 SCT023/// 11/07 Q1009 W (270°) 17.3mph 11°C 7°C
13/01/19 06:50 EGXZ 130650Z AUTO 28009KT 9999 FEW022/// BKN170/// 10/07 Q1009 W (280°) 10.4mph 10°C 7°C
13/01/19 05:50 EGXZ 130550Z AUTO 30008KT 9999 SCT022/// SCT031/// BKN150/// 11/07 Q1010 WNW (300°) 9.2mph 11°C 7°C
13/01/19 04:50 EGXZ 130450Z AUTO 28010KT 9999 SCT021/// BKN160/// 11/07 Q1010 W (280°) 11.5mph 11°C 7°C
13/01/19 03:50 EGXZ 130350Z AUTO 28012KT 9999 FEW022/// BKN130/// 10/07 Q1010 W (280°) 13.8mph 10°C 7°C
13/01/19 02:50 EGXZ 130250Z AUTO 29014G24KT 9999 SCT024/// BKN130/// 11/07 Q1011 WNW (290°) 16.1mph 27.6mph 11°C 7°C
13/01/19 01:50 EGXZ 130150Z AUTO 28013KT 9999 FEW021/// BKN120/// 11/07 Q1011 W (280°) 15.0mph 11°C 7°C
13/01/19 00:50 EGXZ 130050Z AUTO 29010KT 9999 BKN100/// BKN130/// 11/07 Q1012 WNW (290°) 11.5mph 11°C 7°C
12/01/19 23:50 EGXZ 122350Z AUTO 28016G26KT 9999 FEW030/// BKN080/// 12/08 Q1013 W (280°) 18.4mph 29.9mph 12°C 8°C
12/01/19 22:50 EGXZ 122250Z AUTO 28015G27KT 9999 BKN070/// 11/08 Q1013 W (280°) 17.3mph 31.1mph 11°C 8°C
12/01/19 21:50 EGXZ 122150Z AUTO 29014KT 9999 FEW028/// SCT080/// BKN120/// 12/08 Q1013 WNW (290°) 16.1mph 12°C 8°C
12/01/19 20:50 EGXZ 122050Z AUTO 29014KT 9999 SCT026/// BKN120/// 12/08 Q1013 WNW (290°) 16.1mph 12°C 8°C
12/01/19 19:50 EGXZ 121950Z AUTO 29009KT 9999 SCT060/// BKN090/// 11/08 Q1013 RERA WNW (290°) 10.4mph 11°C 8°C
12/01/19 18:50 EGXZ 121850Z AUTO 30011KT 9999 RA FEW021/// BKN070/// 11/08 Q1014 RA WNW (300°) 12.7mph 11°C 8°C
12/01/19 17:50 EGXZ 121750Z AUTO 29009KT 9999 SCT021/// BKN031/// BKN080/// 10/07 Q1014 WNW (290°) 10.4mph 10°C 7°C
12/01/19 16:50 EGXZ 121650Z AUTO 29012KT 9999 FEW050/// BKN080/// 10/06 Q1014 WNW (290°) 13.8mph 10°C 6°C
12/01/19 15:50 EGXZ 121550Z AUTO 29012KT 9999 SCT023/// BKN049/// 09/06 Q1015 RERA WNW (290°) 13.8mph 9°C 6°C
12/01/19 14:50 EGXZ 121450Z AUTO 28012G23KT 9999 -RA BKN023/// BKN035/// 09/06 Q1015 -RA W (280°) 13.8mph 26.5mph 9°C 6°C
12/01/19 13:50 EGXZ 121350Z AUTO 28012KT 9999 BKN070/// 10/06 Q1016 W (280°) 13.8mph 10°C 6°C
12/01/19 12:50 EGXZ 121250Z AUTO 28013KT 9999 BKN070/// 10/05 Q1016 RERA W (280°) 15.0mph 10°C 5°C
12/01/19 11:50 EGXZ 121150Z AUTO 27008KT 9999 BKN060/// 09/06 Q1017 RERA W (270°) 9.2mph 9°C 6°C
12/01/19 10:50 EGXZ 121050Z AUTO 29011KT 9999 BKN080/// 09/05 Q1018 WNW (290°) 12.7mph 9°C 5°C
12/01/19 09:50 EGXZ 120950Z AUTO 28011KT 9999 FEW032/// BKN090/// 09/05 Q1018 W (280°) 12.7mph 9°C 5°C
12/01/19 08:50 EGXZ 120850Z AUTO 28009KT 9999 BKN110/// 09/06 Q1018 W (280°) 10.4mph 9°C 6°C
12/01/19 07:50 EGXZ 120750Z AUTO 29011KT 9999 FEW035/// BKN190/// 09/06 Q1018 RERA WNW (290°) 12.7mph 9°C 6°C
12/01/19 06:50 EGXZ 120650Z AUTO 29009KT 9999 BKN039/// SCT046/// BKN200/// 09/06 Q1018 WNW (290°) 10.4mph 9°C 6°C
12/01/19 05:50 EGXZ 120550Z AUTO 29010KT 9999 FEW030/// BKN180/// 09/07 Q1018 RERA WNW (290°) 11.5mph 9°C 7°C
12/01/19 04:50 EGXZ 120450Z AUTO 26012KT 9999 BKN027/// BKN050/// 10/07 Q1019 W (260°) 13.8mph 10°C 7°C
12/01/19 03:50 EGXZ 120350Z AUTO 24009KT 9999 BKN026/// 09/07 Q1020 WSW (240°) 10.4mph 9°C 7°C
12/01/19 02:50 EGXZ 120250Z AUTO 24009KT 9999 BKN023/// SCT070/// 09/06 Q1021 WSW (240°) 10.4mph 9°C 6°C
12/01/19 01:50 EGXZ 120150Z AUTO 26008KT 9999 BKN020/// BKN070/// 09/06 Q1022 W (260°) 9.2mph 9°C 6°C
12/01/19 00:50 EGXZ 120050Z AUTO 28009KT 9999 SCT020/// 09/06 Q1023 W (280°) 10.4mph 9°C 6°C
11/01/19 23:50 EGXZ 112350Z AUTO 26006KT 9999 BKN020/// BKN030/// 09/05 Q1023 W (260°) 6.9mph 9°C 5°C
11/01/19 22:50 EGXZ 112250Z AUTO 23007KT 9999 BKN026/// BKN037/// 09/05 Q1024 SW (230°) 8.1mph 9°C 5°C
11/01/19 21:50 EGXZ 112150Z AUTO 22004KT 9999 BKN037/// 08/05 Q1025 SW (220°) 4.6mph 8°C 5°C
11/01/19 20:50 EGXZ 112050Z AUTO 23005KT 9999 OVC033/// 08/05 Q1026 SW (230°) 5.8mph 8°C 5°C
11/01/19 19:50 EGXZ 111950Z AUTO 24007KT 9999 OVC033/// 08/04 Q1027 WSW (240°) 8.1mph 8°C 4°C
11/01/19 18:50 EGXZ 111850Z AUTO 26005KT 9999 OVC033/// 08/04 Q1027 W (260°) 5.8mph 8°C 4°C
11/01/19 17:50 EGXZ 111750Z AUTO 25005KT 9999 OVC036/// 07/04 Q1028 WSW (250°) 5.8mph 7°C 4°C
11/01/19 16:50 EGXZ 111650Z AUTO 23005KT 9999 OVC034/// 07/04 Q1028 SW (230°) 5.8mph 7°C 4°C
11/01/19 15:50 EGXZ 111550Z 28003KT 9999 OVC032 07/04 Q1029 BLU W (280°) 3.5mph 7°C 4°C
11/01/19 14:50 EGXZ 111450Z 29003KT 9999 FEW022 BKN030 08/04 Q1029 BLU WNW (290°) 3.5mph 8°C 4°C
11/01/19 13:50 EGXZ 111350Z 29010KT 9999 BKN030 08/04 Q1029 BLU WNW (290°) 11.5mph 8°C 4°C
11/01/19 12:50 EGXZ 111250Z 28008KT 9999 OVC033 08/05 Q1029 BLU W (280°) 9.2mph 8°C 5°C
11/01/19 11:50 EGXZ 111150Z 28009KT 9999 BKN033 08/05 Q1030 BLU W (280°) 10.4mph 8°C 5°C
11/01/19 10:50 EGXZ 111050Z 29006KT 9999 OVC034 07/05 Q1030 BLU WNW (290°) 6.9mph 7°C 5°C
11/01/19 09:50 EGXZ 110950Z 24002KT 9999 BKN034 04/04 Q1030 BLU WSW (240°) 2.3mph 4°C 4°C
11/01/19 08:50 EGXZ 110850Z 16002KT 9999 BKN036 01/01 Q1030 BLU SSE (160°) 2.3mph 1°C 1°C
11/01/19 07:54 EGXZ 110754Z 05003KT 9999 BKN040 M00/M01 Q1030 BLU NE (50°) 3.5mph 0°C -1°C
11/01/19 06:50 EGXZ 110650Z AUTO 36003KT 9999 FEW220/// 01/01 Q1030 N (360°) 3.5mph 1°C 1°C
11/01/19 05:50 EGXZ 110550Z AUTO 35003KT 8000 FEW190/// 01/00 Q1030 N (350°) 3.5mph 1°C 0°C
11/01/19 04:50 EGXZ 110450Z AUTO 34002KT 3400 FEW048/// 02/01 Q1030 NNW (340°) 2.3mph 2°C 1°C
11/01/19 03:50 EGXZ 110350Z AUTO 33003KT 9999 BKN048/// SCT190/// 03/03 Q1030 NNW (330°) 3.5mph 3°C 3°C
11/01/19 02:50 EGXZ 110250Z AUTO 32004KT 9999 FEW050/// 05/03 Q1030 NW (320°) 4.6mph 5°C 3°C
11/01/19 01:50 EGXZ 110150Z AUTO 34005KT 9999 OVC050/// 06/04 Q1030 NNW (340°) 5.8mph 6°C 4°C
11/01/19 00:50 EGXZ 110050Z AUTO 33005KT 9999 OVC047/// 06/04 Q1030 NNW (330°) 5.8mph 6°C 4°C
10/01/19 23:50 EGXZ 102350Z AUTO 33007KT 9999 OVC048/// 07/04 Q1030 NNW (330°) 8.1mph 7°C 4°C
10/01/19 22:50 EGXZ 102250Z AUTO 34006KT 9999 OVC050/// 07/04 Q1030 NNW (340°) 6.9mph 7°C 4°C
10/01/19 21:50 EGXZ 102150Z AUTO 33006KT 9999 OVC050/// 07/05 Q1030 NNW (330°) 6.9mph 7°C 5°C
10/01/19 20:50 EGXZ 102050Z AUTO 31007KT 9999 OVC050/// 07/05 Q1029 NW (310°) 8.1mph 7°C 5°C
10/01/19 19:50 EGXZ 101950Z AUTO 33007KT 9999 OVC050/// 07/05 Q1029 NNW (330°) 8.1mph 7°C 5°C
10/01/19 18:50 EGXZ 101850Z AUTO 32008KT 9999 FEW044/// BKN050/// 08/05 Q1029 NW (320°) 9.2mph 8°C 5°C
10/01/19 17:50 EGXZ 101750Z AUTO 32007KT 9999 OVC050/// 08/05 Q1029 NW (320°) 8.1mph 8°C 5°C
10/01/19 16:50 EGXZ 101650Z AUTO 31008KT 9999 FEW040/// BKN050/// 08/06 Q1029 NW (310°) 9.2mph 8°C 6°C
10/01/19 15:50 EGXZ 101550Z 33003KT CAVOK 07/06 Q1029 BLU NNW (330°) 3.5mph 7°C 6°C
10/01/19 14:50 EGXZ 101450Z 35004KT CAVOK 07/06 Q1029 BLU N (350°) 4.6mph 7°C 6°C
10/01/19 13:50 EGXZ 101350Z 02001KT CAVOK 06/06 Q1029 BLU NNE (20°) 1.2mph 6°C 6°C
10/01/19 12:50 EGXZ 101250Z 22003KT CAVOK 06/05 Q1029 BLU SW (220°) 3.5mph 6°C 5°C
10/01/19 12:37 EGXZ 101237Z 22002KT CAVOK 06/05 Q1029 BLU SW (220°) 2.3mph 6°C 5°C
10/01/19 11:50 EGXZ 101150Z 11001KT 9999 SCT011 BKN050 06/05 Q1029 GRN ESE (110°) 1.2mph 6°C 5°C
10/01/19 10:50 EGXZ 101050Z 21001KT 9999 BKN011 BKN050 03/03 Q1030 GRN SSW (210°) 1.2mph 3°C 3°C
10/01/19 09:50 EGXZ 100950Z 35001KT 3000 DZ OVC016 02/01 Q1030 YLO1 DZ N (350°) 1.2mph 2°C 1°C
10/01/19 09:44 EGXZ 100944Z 35001KT 6000 3000NE HZ OVC017 02/01 Q1030 YLO1 HZ N (350°) 1.2mph 2°C 1°C
10/01/19 08:50 EGXZ 100850Z 09002KT 9999 BKN016 OVC060 01/01 Q1030 WHT E (90°) 2.3mph 1°C 1°C
10/01/19 07:50 EGXZ 100750Z AUTO 18003KT 9999 FEW031/// BKN050/// 01/00 Q1030 S (180°) 3.5mph 1°C 0°C
10/01/19 06:50 EGXZ 100650Z AUTO 13003KT 9999 FEW041/// BKN050/// 00/00 Q1029 SE (130°) 3.5mph 0°C 0°C
10/01/19 05:50 EGXZ 100550Z AUTO 08002KT 9999 FEW050/// BKN070/// M01/M01 Q1029 E (80°) 2.3mph -1°C -1°C